Dresden, Missouri
Current Conditions -  °F | °C
As of 11:53 PM on Friday 19 Dec 2014 (Local Time) from KDMO Reporting Station
Moderate Fog Moderate Fog  
Wind Chill: 33°   Ceiling: 200
Heat Index: 37°   Visibility: 0.5mi
Dew Point: 35°   Wind: 5mph
Humidity: 93%   Direction: 140°SE
Pressure: 30.22"   Gusts: NA
Location:  38.6763°N, 93.2612°W
Report Text: KDMO 200553Z AUTO 14004KT 1/2SM FG VV002 03/02 A3022 RMK AO2 SLP240 T00280017 10028 20022 400280006 50002
Loading
Personal Weather Stations






























Interactive Weather Map New forecast layout! Learn more

10-Day Weather Forecast

Advertisements
Track Severe Weather on mobile